Observations for OLBIA COSTA SMERALD, Italy (LIEO)

LIEO 162050Z VRB02KT CAVOK 24/16 Q1014  
LIEO 162020Z 27004KT CAVOK 24/16 Q1014  
LIEO 161950Z 33005KT CAVOK 25/15 Q1014  
LIEO 161920Z 34007KT CAVOK 26/16 Q1013  
LIEO 161850Z 34007KT CAVOK 26/15 Q1013  
LIEO 161820Z 32009KT 290V350 CAVOK 27/14 Q1013  
LIEO 161750Z 36009KT 330V030 CAVOK 27/17 Q1013  
LIEO 161720Z 36009KT 330V040 CAVOK 27/17 Q1013  
LIEO 161650Z 36009KT CAVOK 28/16 Q1013  
LIEO 161620Z 01011KT 320V040 CAVOK 28/15 Q1013  
LIEO 161550Z 02011KT CAVOK 28/14 Q1013  
LIEO 161520Z 36012KT 330V040 CAVOK 28/14 Q1013  
LIEO 161450Z 02011KT 360V060 CAVOK 28/14 Q1013  
LIEO 161420Z 02013KT CAVOK 28/15 Q1013  
LIEO 161350Z 03011KT 350V060 CAVOK 29/15 Q1013  
LIEO 161320Z 02013KT CAVOK 28/14 Q1013  
LIEO 161250Z 01012KT 340V050 CAVOK 28/13 Q1012  
LIEO 161220Z 03016KT 9999 FEW030 28/14 Q1012
LIEO 161150Z 04017KT 9999 FEW030 28/15 Q1012
LIEO 161120Z 03016KT 9999 FEW030 27/16 Q1013
LIEO 161050Z 03016KT 9999 SCT030 28/15 Q1013
LIEO 161020Z 02018KT 9999 SCT030 26/15 Q1013
LIEO 160950Z 01014KT 9999 SCT030 27/14 Q1012
LIEO 160920Z 01016KT 9999 SCT030 26/16 Q1012
LIEO 160850Z 36015KT CAVOK 25/16 Q1012  
LIEO 160820Z 36014KT 9999 SCT030 26/17 Q1012
LIEO 160750Z 35014KT 9999 SCT030 24/17 Q1012
LIEO 160720Z 36014KT 9999 SCT030 24/18 Q1012
LIEO 160650Z 36013KT 320V030 9999 SCT025 24/18 Q1011
LIEO 160620Z 35013KT 9999 SCT025 23/18 Q1011
LIEO 160550Z 35011KT 9999 SCT025 23/18 Q1010
LIEO 160520Z 35011KT 9999 FEW015 SCT025 22/18 Q1010 
LIEO 160450Z 35012KT 9999 SCT015 SCT020 22/19 Q1009 
LIEO 160420Z 34012KT 9999 FEW015 BKN020 22/19 Q1009 
LIEO 160350Z 01012KT 9999 -DZ SCT018 BKN025 23/20 Q1008 
LIEO 160320Z 01007KT 320V070 9999 -RA BKN020 22/20 Q1008
LIEO 160250Z 04008KT 010V070 9999 SCT030 22/20 Q1007
LIEO 160220Z 01016G26KT 9999 SCT030 23/19 Q1007 
LIEO 160150Z 27005KT 210V310 9999 SCT020 20/19 Q1006
LIEO 160120Z 21005KT 9999 BKN020 19/19 Q1006
LIEO 160050Z 26006KT 220V330 8000 -RA BKN030 19/18 Q1007